Foote, Mississippi
Current Conditions -  °F | °C
As of 4:53 AM on Wednesday 26 Nov 2014 (Local Time) from KGLH Reporting Station
Clear Clear  
Wind Chill: 29°   Ceiling: Unl
Heat Index: 35°   Visibility: 10mi
Dew Point: 29°   Wind: 7mph
Humidity: 78%   Direction: 160°SSE
Pressure: 30.14"   Gusts: NA
Location:  33.1785°N, 90.8086°W
Report Text: KGLH 261053Z AUTO 16006KT 10SM CLR 02/M02 A3014 RMK AO2 SLP214 T00171017
Loading
Personal Weather Stations






























Interactive Weather Map New forecast layout! Learn more

10-Day Weather Forecast

Advertisements
Track Severe Weather on mobile